Time;durP1;ratioP1;P1;durP2;ratioP2;P2;SDS_P1;SDS_P2;PMS_P1;PMS_P2;Temp;Humidity;BMP_temperature;BMP_pressure;BME280_temperature;BME280_humidity;BME280_pressure;Samples;Min_cycle;Max_cycle;Signal;HPM_P1;HPM_P2
2023/07/21 00:00:59;;;;;;;10.38;3.15;;;;;;;14.39;74.83;95662.94;2091427;28;20124;-59
2023/07/21 00:02:01;;;;;;;10.45;3.47;;;;;;;14.39;74.40;95653.31;2090443;28;20388;-59
2023/07/21 00:03:02;;;;;;;7.00;3.00;;;;;;;14.41;73.85;95658.47;2090473;28;20059;-59
2023/07/21 00:04:04;;;;;;;7.90;2.85;;;;;;;14.34;73.69;95647.56;2090236;28;20053;-59
2023/07/21 00:05:05;;;;;;;9.60;2.85;;;;;;;14.40;74.13;95651.53;2090935;28;20400;-59
2023/07/21 00:06:06;;;;;;;8.50;3.85;;;;;;;14.33;74.08;95644.13;2090970;28;20376;-58
2023/07/21 00:07:08;;;;;;;8.63;3.20;;;;;;;14.38;74.41;95651.66;2090624;28;20044;-58
2023/07/21 00:08:09;;;;;;;15.52;3.30;;;;;;;14.40;74.45;95652.38;2089618;28;20120;-58
2023/07/21 00:09:11;;;;;;;11.88;3.63;;;;;;;14.41;74.45;95640.19;2089721;28;20386;-58
2023/07/21 00:10:14;;;;;;;5.72;2.97;;;;;;;14.42;74.01;95645.28;2089974;28;20045;-58
2023/07/21 00:11:15;;;;;;;9.07;3.17;;;;;;;14.42;73.45;95641.84;2089526;28;20404;-58
2023/07/21 00:12:16;;;;;;;9.73;3.17;;;;;;;14.33;73.42;95623.25;2090495;28;20041;-58
2023/07/21 00:13:17;;;;;;;12.63;3.90;;;;;;;14.44;73.49;95637.34;2090645;28;20063;-58
2023/07/21 00:14:18;;;;;;;8.13;2.95;;;;;;;14.44;72.65;95634.72;2090651;28;20396;-57
2023/07/21 00:15:19;;;;;;;6.72;3.00;;;;;;;14.43;72.82;95640.88;2090474;28;20052;-58
2023/07/21 00:16:20;;;;;;;8.00;3.33;;;;;;;14.40;72.41;95634.09;2090579;28;20055;-58
2023/07/21 00:17:22;;;;;;;7.88;3.00;;;;;;;14.40;72.56;95625.41;2090811;28;20057;-58
2023/07/21 00:18:23;;;;;;;9.63;3.55;;;;;;;14.39;73.23;95629.00;2090409;28;20060;-58
2023/07/21 00:19:24;;;;;;;9.43;3.25;;;;;;;14.39;73.40;95629.81;2090375;28;20049;-58
2023/07/21 00:20:25;;;;;;;10.93;3.17;;;;;;;14.38;73.20;95629.91;2089786;28;20156;-58
2023/07/21 00:21:26;;;;;;;8.40;3.10;;;;;;;14.36;72.92;95637.03;2089840;28;20052;-56
2023/07/21 00:22:28;;;;;;;7.75;3.42;;;;;;;14.33;73.68;95633.69;2090127;28;20063;-56
2023/07/21 00:23:31;;;;;;;5.78;2.83;;;;;;;14.30;73.44;95628.66;2090682;28;20468;-56
2023/07/21 00:24:32;;;;;;;7.53;3.35;;;;;;;14.27;73.65;95628.88;2090372;28;20041;-56
2023/07/21 00:25:34;;;;;;;11.35;3.42;;;;;;;14.26;73.70;95632.41;2089823;28;20068;-56
2023/07/21 00:26:35;;;;;;;6.50;3.35;;;;;;;14.24;73.96;95641.28;2089621;28;20164;-56
2023/07/21 00:27:38;;;;;;;11.48;3.80;;;;;;;14.22;74.44;95633.59;2090666;28;20053;-56
2023/07/21 00:28:39;;;;;;;8.50;3.25;;;;;;;14.21;74.91;95634.50;2090343;28;20041;-56
2023/07/21 00:29:40;;;;;;;10.30;3.55;;;;;;;14.20;75.66;95632.84;2090149;28;20045;-56
2023/07/21 00:30:41;;;;;;;8.00;3.30;;;;;;;14.19;76.33;95633.75;2089976;28;20053;-56
2023/07/21 00:31:46;;;;;;;6.63;3.00;;;;;;;14.17;76.73;95633.06;2090308;28;20106;-56
2023/07/21 00:32:47;;;;;;;8.95;3.20;;;;;;;14.16;77.23;95639.19;2089807;28;20052;-56
2023/07/21 00:33:48;;;;;;;8.23;3.72;;;;;;;14.12;77.87;95628.13;2081484;28;20053;-56
2023/07/21 00:34:52;;;;;;;10.40;3.60;;;;;;;14.11;78.39;95639.53;2089639;28;20045;-56
2023/07/21 00:35:55;;;;;;;7.63;3.67;;;;;;;14.08;78.80;95625.81;2090447;28;20049;-59
2023/07/21 00:36:56;;;;;;;7.18;3.55;;;;;;;14.01;78.69;95624.56;2090227;28;20064;-59
2023/07/21 00:38:01;;;;;;;14.18;3.70;;;;;;;14.10;79.42;95629.16;2090028;28;20225;-59
2023/07/21 00:39:03;;;;;;;11.63;3.67;;;;;;;14.09;79.35;95630.94;2081364;28;20068;-59
2023/07/21 00:40:05;;;;;;;7.97;3.15;;;;;;;14.05;79.19;95629.47;2065481;28;20467;-60
2023/07/21 00:41:06;;;;;;;7.05;3.25;;;;;;;14.00;79.33;95628.09;2072818;28;20359;-58
2023/07/21 00:42:08;;;;;;;8.25;3.10;;;;;;;14.04;79.38;95629.59;2088966;28;20056;-58
2023/07/21 00:43:09;;;;;;;11.45;3.47;;;;;;;14.02;79.18;95632.28;2090357;28;20045;-59
2023/07/21 00:44:10;;;;;;;13.80;3.25;;;;;;;14.01;78.80;95629.78;2090458;28;20044;-59
2023/07/21 00:45:14;;;;;;;8.32;3.55;;;;;;;14.00;78.83;95626.31;2089781;28;20424;-59
2023/07/21 00:46:15;;;;;;;6.30;3.35;;;;;;;13.97;78.38;95625.69;2089676;28;20069;-59
2023/07/21 00:47:16;;;;;;;7.75;3.58;;;;;;;13.95;78.12;95622.34;2081476;28;20517;-59
2023/07/21 00:48:17;;;;;;;7.63;3.33;;;;;;;13.94;78.38;95631.97;2073177;28;20069;-59
2023/07/21 00:49:18;;;;;;;8.02;3.67;;;;;;;13.85;78.42;95622.97;2089051;28;20061;-59
2023/07/21 00:50:20;;;;;;;11.75;3.65;;;;;;;13.90;78.50;95626.13;2080854;28;20152;-59
2023/07/21 00:51:22;;;;;;;6.93;3.30;;;;;;;13.89;78.21;95629.66;2081537;28;20056;-59
2023/07/21 00:52:24;;;;;;;7.43;3.40;;;;;;;13.89;78.56;95628.81;2081576;28;20053;-59
2023/07/21 00:53:25;;;;;;;7.72;3.45;;;;;;;13.78;78.76;95613.03;2089240;28;20481;-58
2023/07/21 00:54:26;;;;;;;8.57;3.42;;;;;;;13.86;79.19;95624.63;2081449;28;20064;-59
2023/07/21 00:55:27;;;;;;;8.05;3.30;;;;;;;13.86;79.32;95629.84;2081316;28;20053;-59
2023/07/21 00:56:28;;;;;;;9.15;3.63;;;;;;;13.85;79.61;95624.75;2081663;28;20057;-59
2023/07/21 00:57:30;;;;;;;5.53;3.30;;;;;;;13.86;79.30;95629.03;2073253;28;20054;-59
2023/07/21 00:58:32;;;;;;;8.15;3.40;;;;;;;13.84;79.46;95626.50;2073536;28;20056;-60
2023/07/21 00:59:34;;;;;;;6.82;3.67;;;;;;;13.85;80.25;95620.38;2089413;28;20048;-60
2023/07/21 01:00:36;;;;;;;8.38;3.78;;;;;;;13.86;79.93;95624.63;2089443;28;20108;-60
2023/07/21 01:01:37;;;;;;;9.38;3.40;;;;;;;13.88;80.02;95621.94;2081562;28;20064;-59
2023/07/21 01:02:38;;;;;;;7.15;3.28;;;;;;;13.88;80.14;95622.75;2089153;28;20060;-59
2023/07/21 01:03:39;;;;;;;9.07;3.75;;;;;;;13.87;80.17;95621.09;2090286;28;20057;-59
2023/07/21 01:04:41;;;;;;;7.68;3.75;;;;;;;13.89;80.39;95616.59;2089287;28;20052;-59
2023/07/21 01:05:43;;;;;;;6.70;3.28;;;;;;;13.82;80.55;95609.28;2073584;28;20482;-59
2023/07/21 01:06:45;;;;;;;9.18;3.22;;;;;;;13.91;80.41;95621.72;2080862;28;20477;-59
2023/07/21 01:07:46;;;;;;;7.10;3.92;;;;;;;13.90;80.76;95614.84;2090671;28;20053;-59
2023/07/21 01:08:47;;;;;;;7.40;3.65;;;;;;;13.84;80.64;95605.63;2089519;28;20037;-59
2023/07/21 01:09:48;;;;;;;8.63;3.40;;;;;;;13.90;80.78;95614.84;2089246;28;20045;-59
2023/07/21 01:10:50;;;;;;;7.55;3.55;;;;;;;13.93;80.89;95608.59;2089451;28;20033;-59
2023/07/21 01:11:51;;;;;;;8.45;3.42;;;;;;;13.93;81.02;95619.03;2088848;28;20060;-59
2023/07/21 01:12:52;;;;;;;6.10;3.58;;;;;;;13.92;80.97;95615.56;2081401;28;20041;-59
2023/07/21 01:13:54;;;;;;;6.97;3.45;;;;;;;13.90;80.64;95607.84;2081151;28;20041;-58
2023/07/21 01:14:55;;;;;;;6.57;3.50;;;;;;;13.91;80.89;95613.91;2081562;28;20442;-59
2023/07/21 01:15:56;;;;;;;8.63;3.53;;;;;;;13.92;80.41;95612.13;2080888;28;20056;-59
2023/07/21 01:16:58;;;;;;;6.93;3.30;;;;;;;13.94;79.78;95618.09;2080736;28;20065;-59
2023/07/21 01:17:59;;;;;;;11.02;3.60;;;;;;;13.93;79.25;95619.88;2073593;28;20057;-59
2023/07/21 01:19:01;;;;;;;7.32;3.60;;;;;;;13.91;79.39;95603.47;2081296;28;20429;-59
2023/07/21 01:20:04;;;;;;;9.98;3.92;;;;;;;13.98;79.27;95606.47;2072722;28;20375;-59
2023/07/21 01:21:05;;;;;;;7.97;3.55;;;;;;;14.00;79.26;95605.44;2073736;28;20053;-59
2023/07/21 01:22:10;;;;;;;7.75;3.53;;;;;;;14.05;78.48;95607.75;2073067;28;20058;-59
2023/07/21 01:23:51;;;;;;;5.25;3.13;;;;;;;14.08;78.21;95602.31;2081872;28;20045;-59
2023/07/21 01:25:13;;;;;;;7.55;2.97;;;;;;;14.10;77.70;95610.88;2088869;28;20049;-60
2023/07/21 01:26:14;;;;;;;6.55;2.88;;;;;;;14.09;77.20;95604.84;2076011;28;20061;-58
2023/07/21 01:27:20;;;;;;;9.07;3.55;;;;;;;14.00;76.89;95586.34;2066265;28;20054;-58
2023/07/21 01:28:21;;;;;;;6.75;3.25;;;;;;;14.10;76.85;95601.28;2058053;28;20050;-58
2023/07/21 01:29:23;;;;;;;5.75;3.05;;;;;;;14.09;76.45;95604.84;2066341;28;20061;-59
2023/07/21 01:30:24;;;;;;;6.63;3.63;;;;;;;14.10;76.61;95601.28;2080986;28;20053;-59
2023/07/21 01:31:25;;;;;;;9.32;2.95;;;;;;;14.10;76.58;95596.06;2081149;28;20045;-59
2023/07/21 01:32:28;;;;;;;6.47;3.28;;;;;;;14.11;76.38;95602.09;2057169;28;20055;-59
2023/07/21 01:33:29;;;;;;;8.90;3.83;;;;;;;14.11;76.50;95600.34;2057360;28;20053;-59
2023/07/21 01:34:31;;;;;;;6.90;2.92;;;;;;;14.14;76.26;95599.31;2072998;28;20053;-58
2023/07/21 01:35:32;;;;;;;6.18;3.10;;;;;;;14.14;76.46;95604.53;2072624;28;20046;-59
2023/07/21 01:36:33;;;;;;;9.70;3.60;;;;;;;14.14;76.35;95591.47;2072871;28;20041;-59
2023/07/21 01:37:36;;;;;;;10.90;3.20;;;;;;;14.15;76.09;95590.53;2056899;28;20054;-59
2023/07/21 01:38:37;;;;;;;10.27;3.33;;;;;;;14.16;76.08;95593.97;2065687;28;20134;-59
2023/07/21 01:39:39;;;;;;;6.53;3.25;;;;;;;14.17;75.87;95598.28;2081309;28;20495;-58
2023/07/21 01:40:40;;;;;;;5.20;3.20;;;;;;;14.16;76.18;95593.97;2089333;28;20040;-59
2023/07/21 01:41:41;;;;;;;7.35;3.28;;;;;;;14.16;75.88;95597.41;2072936;28;20046;-60
2023/07/21 01:42:44;;;;;;;9.15;3.47;;;;;;;14.07;76.06;95580.59;2056607;28;20043;-59
2023/07/21 01:43:46;;;;;;;8.57;3.70;;;;;;;14.13;75.80;95584.56;2072802;28;20054;-58
2023/07/21 01:44:47;;;;;;;6.70;3.15;;;;;;;14.14;75.98;95586.25;2073166;28;20094;-60
2023/07/21 01:45:49;;;;;;;6.50;3.38;;;;;;;14.02;76.11;95572.25;2073170;28;20417;-55
2023/07/21 01:46:52;;;;;;;6.25;3.83;;;;;;;14.12;76.48;95590.75;2080696;28;20061;-55
2023/07/21 01:47:55;;;;;;;9.10;3.40;;;;;;;14.12;76.65;95588.97;2089604;28;20056;-55
2023/07/21 01:48:56;;;;;;;7.40;3.63;;;;;;;14.12;77.24;95585.53;2089906;28;20057;-55
2023/07/21 01:49:58;;;;;;;7.50;3.42;;;;;;;14.10;77.05;95584.78;2090036;28;20476;-55
2023/07/21 01:50:59;;;;;;;5.30;3.08;;;;;;;14.08;77.39;95578.81;2089557;28;20049;-55
2023/07/21 01:52:00;;;;;;;6.88;4.32;;;;;;;14.07;77.53;95583.22;2088854;28;20060;-55
2023/07/21 01:53:03;;;;;;;6.63;3.28;;;;;;;13.96;77.88;95567.44;2081360;28;20060;-55
2023/07/21 01:54:05;;;;;;;7.43;3.45;;;;;;;13.94;78.29;95569.31;2072956;28;20054;-55
2023/07/21 01:55:26;;;;;;;8.63;3.40;;;;;;;14.02;78.69;95582.69;2064734;28;20065;-55
2023/07/21 01:56:31;;;;;;;7.47;3.28;;;;;;;14.01;79.21;95585.41;2070703;28;20430;-55
2023/07/21 01:57:34;;;;;;;8.27;3.65;;;;;;;13.99;79.02;95580.28;2074198;28;20054;-55
2023/07/21 01:58:35;;;;;;;6.43;3.63;;;;;;;13.97;79.08;95581.31;2073335;28;20552;-55
2023/07/21 01:59:36;;;;;;;7.95;3.20;;;;;;;13.97;79.83;95574.31;2064523;28;20061;-54
2023/07/21 02:00:41;;;;;;;7.05;3.50;;;;;;;13.94;79.52;95579.75;2056991;28;20529;-54
2023/07/21 02:01:42;;;;;;;7.50;3.33;;;;;;;13.94;79.98;95584.16;2081592;28;20060;-55
2023/07/21 02:02:44;;;;;;;7.57;3.05;;;;;;;13.92;79.98;95578.19;2089020;28;20116;-54
2023/07/21 02:03:46;;;;;;;8.27;3.40;;;;;;;13.90;80.06;95579.13;2082705;28;20044;-54
2023/07/21 02:04:50;;;;;;;7.95;3.80;;;;;;;13.90;80.54;95579.13;2074507;28;20054;-55
2023/07/21 02:05:52;;;;;;;6.70;3.25;;;;;;;13.89;80.64;95579.22;2074784;28;20548;-55
2023/07/21 02:06:53;;;;;;;5.25;3.20;;;;;;;13.88;80.65;95575.78;2082169;28;20058;-55
2023/07/21 02:07:54;;;;;;;4.55;2.70;;;;;;;13.88;80.66;95580.19;2091556;28;20065;-55
2023/07/21 02:08:55;;;;;;;5.80;3.30;;;;;;;13.87;80.83;95576.72;2090928;28;20056;-55
2023/07/21 02:09:58;;;;;;;7.03;3.22;;;;;;;13.89;80.82;95582.66;2082466;28;20517;-55
2023/07/21 02:10:59;;;;;;;7.45;3.47;;;;;;;13.89;80.65;95580.06;2082839;28;20053;-54
2023/07/21 02:12:30;;;;;;;6.97;3.25;;;;;;;13.92;81.18;95576.41;2082673;28;20060;-55
2023/07/21 02:13:39;;;;;;;6.10;2.92;;;;;;;13.93;81.21;95578.09;2087431;28;20481;-55
2023/07/21 02:14:40;;;;;;;6.78;3.25;;;;;;;13.94;81.20;95573.69;2082407;28;20049;-54
2023/07/21 02:15:42;;;;;;;7.40;3.55;;;;;;;13.96;81.14;95577.06;2090487;28;20049;-55
2023/07/21 02:16:43;;;;;;;5.13;3.13;;;;;;;13.97;80.86;95568.28;2082532;28;20049;-55
2023/07/21 02:17:45;;;;;;;5.43;3.40;;;;;;;14.02;80.87;95581.84;2081557;28;20053;-55
2023/07/21 02:18:46;;;;;;;5.05;2.80;;;;;;;14.03;80.41;95573.94;2090240;28;20048;-55
2023/07/21 02:19:47;;;;;;;6.20;2.95;;;;;;;14.07;79.73;95574.56;2090447;28;20139;-55
2023/07/21 02:20:48;;;;;;;4.53;3.00;;;;;;;14.08;79.18;95571.00;2081829;28;20045;-55
2023/07/21 02:21:49;;;;;;;8.73;3.22;;;;;;;14.08;78.85;95574.44;2082336;28;20053;-55
2023/07/21 02:22:50;;;;;;;6.15;3.00;;;;;;;14.08;78.06;95566.59;2090401;28;20424;-55
2023/07/21 02:23:51;;;;;;;5.78;3.10;;;;;;;14.01;77.73;95554.09;2090626;28;20112;-55
2023/07/21 02:24:52;;;;;;;8.52;3.00;;;;;;;14.08;77.89;95566.59;2090915;28;20049;-55
2023/07/21 02:25:54;;;;;;;5.22;2.70;;;;;;;14.08;77.79;95571.81;2081963;28;20053;-55
2023/07/21 02:26:56;;;;;;;5.20;3.33;;;;;;;14.06;77.79;95568.50;2090697;28;20052;-55
2023/07/21 02:27:57;;;;;;;6.60;3.17;;;;;;;14.05;77.72;95569.41;2090648;28;20053;-55
2023/07/21 02:28:59;;;;;;;7.05;3.08;;;;;;;14.04;78.02;95569.53;2090349;28;20064;-55
2023/07/21 02:30:00;;;;;;;6.30;3.03;;;;;;;13.95;77.99;95557.09;2082450;28;20049;-55
2023/07/21 02:31:03;;;;;;;6.22;2.83;;;;;;;13.92;78.34;95552.91;2082356;28;20050;-54
2023/07/21 02:32:04;;;;;;;9.30;3.10;;;;;;;14.01;78.91;95570.59;2090686;28;20056;-55
2023/07/21 02:33:06;;;;;;;6.63;2.80;;;;;;;14.02;79.08;95571.41;2091345;28;20049;-55
2023/07/21 02:34:07;;;;;;;7.38;3.05;;;;;;;14.03;79.43;95567.84;2090198;28;20049;-55
2023/07/21 02:35:08;;;;;;;4.63;3.20;;;;;;;14.03;79.59;95573.94;2090422;28;20063;-55
2023/07/21 02:36:09;;;;;;;5.18;2.72;;;;;;;14.03;79.77;95571.31;2091330;28;20124;-55
2023/07/21 02:37:10;;;;;;;4.68;2.80;;;;;;;14.02;79.70;95572.25;2090750;28;20075;-55
2023/07/21 02:38:11;;;;;;;5.65;2.90;;;;;;;14.01;79.70;95570.59;2082619;28;20064;-54
2023/07/21 02:39:13;;;;;;;5.93;2.70;;;;;;;14.02;79.83;95572.25;2090237;28;20067;-55
2023/07/21 02:40:14;;;;;;;4.60;3.10;;;;;;;14.03;79.59;95570.47;2091199;28;20369;-55
2023/07/21 02:41:15;;;;;;;5.93;2.60;;;;;;;14.01;79.42;95570.59;2091079;28;20385;-55
2023/07/21 02:42:17;;;;;;;7.50;3.28;;;;;;;14.06;79.48;95567.63;2090193;28;20057;-54
2023/07/21 02:43:18;;;;;;;5.22;2.50;;;;;;;14.01;79.29;95554.09;2082289;28;20133;-55
2023/07/21 02:44:19;;;;;;;6.38;3.40;;;;;;;14.07;79.04;95564.94;2090828;28;20041;-55
2023/07/21 02:45:20;;;;;;;6.50;2.80;;;;;;;14.10;78.79;95566.50;2091490;28;20072;-55
2023/07/21 02:46:21;;;;;;;5.97;2.83;;;;;;;14.11;78.02;95555.97;2091181;28;20048;-54
2023/07/21 02:47:22;;;;;;;5.20;2.95;;;;;;;14.11;77.17;95558.59;2090951;28;20534;-55
2023/07/21 02:48:24;;;;;;;6.70;3.13;;;;;;;14.12;77.35;95560.25;2090589;28;20053;-55
2023/07/21 02:49:25;;;;;;;5.88;2.70;;;;;;;14.13;77.16;95566.28;2090514;28;20057;-55
2023/07/21 02:50:27;;;;;;;8.85;2.92;;;;;;;14.12;77.24;95555.00;2091132;28;20048;-55
2023/07/21 02:51:28;;;;;;;6.32;2.67;;;;;;;14.12;76.89;95548.97;2091265;28;20477;-55
2023/07/21 02:52:29;;;;;;;4.82;2.72;;;;;;;14.14;76.88;95557.53;2091372;28;20089;-55
2023/07/21 02:53:32;;;;;;;5.35;2.35;;;;;;;14.10;76.87;95548.22;2089483;28;20056;-55
2023/07/21 02:54:36;;;;;;;5.50;2.40;;;;;;;14.12;76.74;95551.56;2082688;28;20045;-55
2023/07/21 02:55:37;;;;;;;4.65;2.78;;;;;;;14.12;76.21;95546.34;2082592;28;20068;-55
2023/07/21 02:56:38;;;;;;;8.43;3.08;;;;;;;14.11;76.78;95545.53;2082693;28;20417;-55
2023/07/21 02:57:49;;;;;;;6.20;3.00;;;;;;;14.11;76.59;95539.44;2083571;28;20052;-55
2023/07/21 02:58:53;;;;;;;6.95;3.10;;;;;;;14.09;76.73;95544.78;2082624;28;20060;-55
2023/07/21 02:59:55;;;;;;;6.35;3.10;;;;;;;14.09;76.67;95536.97;2082367;28;20076;-55
2023/07/21 03:01:03;;;;;;;4.78;2.53;;;;;;;14.08;76.43;95548.31;2083796;28;20057;-55
2023/07/21 03:02:10;;;;;;;13.00;3.00;;;;;;;14.07;76.43;95543.22;2083355;28;20045;-54
2023/07/21 03:03:18;;;;;;;4.75;2.72;;;;;;;14.06;76.73;95538.91;2090091;28;20524;-55
2023/07/21 03:04:24;;;;;;;5.65;2.47;;;;;;;14.05;76.86;95539.88;2090349;28;20488;-55
2023/07/21 03:05:30;;;;;;;7.25;2.85;;;;;;;14.05;77.18;95545.09;2083138;28;20053;-55
2023/07/21 03:06:31;;;;;;;6.88;3.45;;;;;;;13.95;76.52;95528.38;2082828;28;20063;-55
2023/07/21 03:07:32;;;;;;;6.55;3.70;;;;;;;14.01;76.90;95548.88;2081944;28;20476;-54
2023/07/21 03:08:39;;;;;;;7.25;3.85;;;;;;;13.99;76.81;95541.13;2082973;28;20092;-55
2023/07/21 03:09:43;;;;;;;8.45;4.70;;;;;;;13.99;76.78;95545.53;2074325;28;20057;-55
2023/07/21 03:10:57;;;;;;;12.27;4.80;;;;;;;13.99;76.75;95540.28;2077138;28;20053;-55
2023/07/21 03:12:00;;;;;;;7.55;4.40;;;;;;;13.96;77.05;95540.50;2090213;28;20480;-55
2023/07/21 03:13:20;;;;;;;7.30;3.90;;;;;;;13.96;77.28;95551.78;2090206;28;20056;-55
2023/07/21 03:14:21;;;;;;;6.25;3.95;;;;;;;13.95;77.73;95547.47;2089761;28;20086;-55
2023/07/21 03:15:22;;;;;;;9.02;4.10;;;;;;;13.94;77.98;95548.44;2082398;28;20076;-55
2023/07/21 03:16:44;;;;;;;9.27;4.78;;;;;;;13.91;78.74;95543.41;2090057;28;20053;-54
2023/07/21 03:17:46;;;;;;;9.85;5.18;;;;;;;13.94;78.53;95545.00;2090222;28;20041;-55
2023/07/21 03:18:47;;;;;;;11.50;4.78;;;;;;;13.92;78.66;95547.69;2081932;28;20506;-55
2023/07/21 03:19:51;;;;;;;10.32;4.80;;;;;;;13.92;78.71;95544.25;2082770;28;20058;-55
2023/07/21 03:20:58;;;;;;;13.02;6.40;;;;;;;13.92;78.73;95541.66;2082078;28;20061;-54
2023/07/21 03:22:00;;;;;;;13.48;6.03;;;;;;;13.91;78.55;95546.03;2081888;28;20053;-55
2023/07/21 03:23:01;;;;;;;10.88;5.25;;;;;;;13.91;78.23;95546.03;2081789;28;20056;-55
2023/07/21 03:24:03;;;;;;;9.80;4.95;;;;;;;13.89;78.55;95543.50;2081890;28;20387;-54
2023/07/21 03:25:06;;;;;;;7.32;5.18;;;;;;;13.92;78.34;95549.47;2082084;28;20559;-55
2023/07/21 03:26:07;;;;;;;8.55;5.00;;;;;;;13.91;78.33;95540.81;2082010;28;20069;-55
2023/07/21 03:27:14;;;;;;;10.75;5.07;;;;;;;13.91;78.08;95540.81;2089813;28;20060;-55
2023/07/21 03:28:16;;;;;;;8.23;5.35;;;;;;;13.92;78.42;95536.41;2090234;28;20061;-55
2023/07/21 03:29:17;;;;;;;9.25;4.90;;;;;;;13.93;78.15;95528.50;2081968;28;20053;-54
2023/07/21 03:30:21;;;;;;;9.35;5.38;;;;;;;13.98;77.74;95530.78;2089970;28;20053;-55
2023/07/21 03:31:28;;;;;;;9.07;5.60;;;;;;;14.00;77.60;95528.91;2082986;28;20045;-54
2023/07/21 03:32:36;;;;;;;7.95;5.50;;;;;;;13.93;77.76;95518.06;2090381;28;20033;-55
2023/07/21 03:33:37;;;;;;;10.23;6.03;;;;;;;13.97;77.21;95524.72;2090182;28;20057;-55
2023/07/21 03:34:48;;;;;;;8.88;5.82;;;;;;;13.88;77.49;95510.53;2083017;28;20073;-55
2023/07/21 03:35:58;;;;;;;14.00;7.30;;;;;;;14.04;77.06;95533.81;2090146;28;20049;-55
2023/07/21 03:37:01;;;;;;;;;;;;;;;14.06;76.86;95531.09;2082804;28;20076;-55
2023/07/21 03:38:02;;;;;;;13.77;6.65;;;;;;;14.04;76.50;95533.00;2090112;28;19932;-55
2023/07/21 03:39:03;;;;;;;13.25;7.53;;;;;;;13.93;76.23;95514.63;2089254;28;20053;-55
2023/07/21 03:40:06;;;;;;;11.65;6.65;;;;;;;13.95;76.51;95528.38;2090153;28;20057;-55
2023/07/21 03:41:08;;;;;;;11.18;7.00;;;;;;;13.98;76.35;95531.63;2089842;28;20441;-55
2023/07/21 03:42:10;;;;;;;12.95;7.43;;;;;;;14.06;76.52;95544.13;2082325;28;20079;-56
2023/07/21 03:43:11;;;;;;;11.95;6.95;;;;;;;14.07;76.47;95538.00;2082587;28;20049;-55
2023/07/21 03:44:13;;;;;;;10.52;7.20;;;;;;;14.07;76.41;95544.06;2090177;28;20052;-56
2023/07/21 03:45:16;;;;;;;16.05;8.23;;;;;;;14.09;76.32;95550.00;2090060;28;20064;-56
2023/07/21 03:46:18;;;;;;;13.38;7.53;;;;;;;14.10;76.07;95550.84;2081969;28;20053;-55
2023/07/21 03:47:37;;;;;;;13.27;8.23;;;;;;;14.11;75.96;95555.09;2090309;28;20513;-55
2023/07/21 03:48:39;;;;;;;13.75;8.32;;;;;;;14.10;75.85;95546.44;2089767;28;20132;-55
2023/07/21 03:49:43;;;;;;;12.27;8.05;;;;;;;14.16;75.59;95557.41;2090154;28;20056;-55
2023/07/21 03:50:45;;;;;;;13.63;8.13;;;;;;;14.16;75.25;95552.19;2089417;28;20053;-55
2023/07/21 03:51:46;;;;;;;13.73;8.30;;;;;;;14.18;74.76;95563.38;2081797;28;20121;-55
2023/07/21 03:52:50;;;;;;;15.88;8.57;;;;;;;14.20;74.57;95562.34;2082069;28;20052;-55
2023/07/21 03:53:52;;;;;;;13.52;8.80;;;;;;;14.17;74.16;95548.66;2090188;28;20048;-54
2023/07/21 03:54:57;;;;;;;14.05;8.10;;;;;;;14.27;74.21;95549.69;2089933;28;20559;-55
2023/07/21 03:55:58;;;;;;;10.07;6.38;;;;;;;14.28;75.32;95560.03;2081920;28;20473;-55
2023/07/21 03:57:01;;;;;;;10.80;6.25;;;;;;;14.37;75.99;95552.50;2090179;28;20060;-56
2023/07/21 03:58:03;;;;;;;9.05;5.80;;;;;;;14.38;76.65;95549.78;2089725;28;20059;-55
2023/07/21 03:59:04;;;;;;;9.77;5.80;;;;;;;14.40;77.06;95549.66;2073781;28;20056;-55
2023/07/21 04:00:06;;;;;;;9.77;5.75;;;;;;;14.44;76.91;95551.13;2081623;28;20050;-56
2023/07/21 04:01:15;;;;;;;11.52;6.20;;;;;;;14.49;76.68;95554.28;2090907;28;20041;-56
2023/07/21 04:02:17;;;;;;;10.10;6.05;;;;;;;14.50;76.76;95555.94;2089874;28;20049;-56
2023/07/21 04:03:18;;;;;;;9.18;6.20;;;;;;;14.54;76.70;95560.88;2090118;28;20072;-56
2023/07/21 04:04:19;;;;;;;8.90;6.40;;;;;;;14.56;76.36;95564.19;2090483;28;20073;-56
2023/07/21 04:05:20;;;;;;;10.52;6.15;;;;;;;14.60;76.06;95561.38;2090556;28;20441;-55
2023/07/21 04:06:24;;;;;;;8.50;5.80;;;;;;;14.60;75.99;95556.16;2089792;28;20381;-55
2023/07/21 04:07:25;;;;;;;10.25;5.07;;;;;;;14.63;75.37;95562.00;2089545;28;20798;-56
2023/07/21 04:08:26;;;;;;;9.35;5.07;;;;;;;14.65;75.79;95554.91;2091134;28;20068;-55
2023/07/21 04:09:28;;;;;;;9.10;5.30;;;;;;;14.66;75.23;95551.31;2089583;28;20059;-55
2023/07/21 04:10:33;;;;;;;7.45;4.55;;;;;;;14.69;75.66;95555.50;2090000;28;20072;-55
2023/07/21 04:11:34;;;;;;;7.55;4.35;;;;;;;14.70;76.20;95560.63;2090551;28;20045;-55
2023/07/21 04:12:35;;;;;;;9.93;4.60;;;;;;;14.72;76.98;95553.50;2090474;28;20445;-54
2023/07/21 04:13:36;;;;;;;9.70;3.60;;;;;;;14.75;76.43;95557.69;2089757;28;20401;-55
2023/07/21 04:14:37;;;;;;;11.18;4.45;;;;;;;14.78;76.03;95560.94;2090292;28;20044;-56
2023/07/21 04:15:38;;;;;;;6.65;4.30;;;;;;;14.80;76.13;95555.56;2089793;28;20045;-55
2023/07/21 04:16:39;;;;;;;7.47;3.90;;;;;;;14.83;76.29;95563.19;2081290;28;20052;-55
2023/07/21 04:17:41;;;;;;;6.80;3.67;;;;;;;14.78;75.64;95550.47;2089590;28;20049;-55
2023/07/21 04:18:42;;;;;;;7.05;3.85;;;;;;;14.89;75.69;95562.78;2091168;28;20374;-55
2023/07/21 04:19:43;;;;;;;6.15;3.58;;;;;;;14.91;76.19;95560.03;2089543;28;20057;-55
2023/07/21 04:20:44;;;;;;;5.95;3.63;;;;;;;14.93;75.99;95558.16;2081646;28;20045;-56
2023/07/21 04:21:47;;;;;;;7.28;3.78;;;;;;;14.93;75.19;95561.59;2081873;28;20045;-55
2023/07/21 04:22:49;;;;;;;5.70;3.17;;;;;;;14.94;74.65;95555.44;2081702;28;20054;-55
2023/07/21 04:23:50;;;;;;;9.93;3.88;;;;;;;14.95;74.70;95551.88;2089421;28;20054;-55
2023/07/21 04:24:52;;;;;;;12.25;4.03;;;;;;;15.01;74.95;95558.44;2089347;28;20349;-55
2023/07/21 04:25:55;;;;;;;5.68;3.30;;;;;;;14.95;74.93;95541.41;2081046;28;20171;-56
2023/07/21 04:26:56;;;;;;;7.60;3.30;;;;;;;15.06;74.50;95561.56;2081891;28;20064;-55
2023/07/21 04:27:58;;;;;;;8.55;3.25;;;;;;;15.11;74.14;95561.25;2089657;28;20044;-55
2023/07/21 04:29:00;;;;;;;7.07;3.22;;;;;;;15.09;72.20;95550.88;2081502;28;20045;-55
2023/07/21 04:30:01;;;;;;;5.97;3.13;;;;;;;15.11;71.32;95556.84;2081973;28;20513;-55
2023/07/21 04:31:03;;;;;;;6.30;3.05;;;;;;;15.14;71.03;95558.41;2081532;28;20061;-55
2023/07/21 04:32:14;;;;;;;6.82;3.33;;;;;;;15.17;71.36;95556.38;2089414;28;20456;-55
2023/07/21 04:33:15;;;;;;;7.90;3.10;;;;;;;15.19;70.30;95549.28;2081549;28;20509;-55
2023/07/21 04:34:18;;;;;;;7.57;3.45;;;;;;;15.20;71.06;95550.94;2081672;28;20057;-55
2023/07/21 04:35:21;;;;;;;6.05;3.17;;;;;;;15.19;71.82;95548.44;2082364;28;20436;-55
2023/07/21 04:36:23;;;;;;;6.28;2.90;;;;;;;15.10;71.11;95536.00;2081604;28;20094;-55
2023/07/21 04:37:25;;;;;;;5.00;3.00;;;;;;;15.21;71.03;95552.63;2081394;28;20060;-55
2023/07/21 04:38:29;;;;;;;6.95;3.08;;;;;;;15.24;71.11;95553.34;2081652;28;20128;-55
2023/07/21 04:39:39;;;;;;;5.78;2.83;;;;;;;15.25;71.01;95545.38;2082458;28;20056;-56
2023/07/21 04:40:44;;;;;;;6.82;2.78;;;;;;;15.27;70.35;95555.75;2081671;28;20045;-56
2023/07/21 04:41:45;;;;;;;7.55;3.13;;;;;;;15.26;70.08;95546.19;2089633;28;20064;-56
2023/07/21 04:42:47;;;;;;;7.07;3.10;;;;;;;15.28;70.02;95552.16;2082099;28;20050;-56
2023/07/21 04:43:49;;;;;;;9.45;3.17;;;;;;;15.25;70.10;95552.38;2090007;28;20048;-56
2023/07/21 04:44:51;;;;;;;9.15;3.30;;;;;;;15.26;69.93;95554.06;2089646;28;20049;-56
2023/07/21 04:45:54;;;;;;;6.78;3.03;;;;;;;15.26;69.81;95551.44;2089991;28;20055;-57
2023/07/21 04:47:04;;;;;;;12.38;3.50;;;;;;;15.16;70.21;95549.50;2089738;28;20044;-57
2023/07/21 04:48:11;;;;;;;9.25;3.22;;;;;;;15.24;70.44;95559.41;2082076;28;20045;-55
2023/07/21 04:49:14;;;;;;;8.30;3.08;;;;;;;15.21;68.83;95557.03;2081524;28;20049;-55
2023/07/21 04:50:19;;;;;;;10.50;3.60;;;;;;;15.18;67.89;95558.06;2082041;28;20053;-56
2023/07/21 04:51:20;;;;;;;11.75;3.45;;;;;;;15.21;67.89;95560.47;2081530;28;20045;-56
2023/07/21 04:52:22;;;;;;;8.80;3.22;;;;;;;15.23;68.58;95562.94;2073414;28;20050;-55
2023/07/21 04:53:23;;;;;;;6.10;2.90;;;;;;;15.20;67.93;95561.38;2073063;28;20056;-56
2023/07/21 04:54:25;;;;;;;8.15;3.00;;;;;;;15.20;67.50;95568.41;2089452;28;20052;-55
2023/07/21 04:55:26;;;;;;;7.90;3.20;;;;;;;15.19;67.80;95564.97;2089546;28;20053;-56